ENFB/FBU METAR and TAF weather

Enter ICAO airport designator
Station Type Date Time Source
ENFB METAR 2020/06/06 19:50 UTC NOAA

ENFB 061950Z AUTO 36029KT 9000NDV OVC007/// 10/09 Q0995 W///S5


Station Type Date Time Source
ENFB Decoded METAR 2020/06/06 19:50 UTC NOAA

Oslo / Fornebu, Norway (ENFB) 59-54N 010-38E 17M
Jun 06, 2020 - 03:50 PM EDT / 2020.06.06 1950 UTC
Wind: from the N (360 degrees) at 33 MPH (29 KT):0
Sky conditions: overcast
Temperature: 50 F (10 C)
Dew Point: 48 F (9 C)
Relative Humidity: 93%
Pressure (altimeter): 29.38 in. Hg (0995 hPa)
ob: ENFB 061950Z AUTO 36029KT 9000NDV OVC007/// 10/09 Q0995 W///S5
cycle: 20

Station Type Date Time Source
ENFB TAF UTC NOAA

Error!

Example: see airport list